Time,TemperatureF,DewpointF,PressureIn,WindDirection,WindDirectionDegrees,WindSpeedMPH,WindSpeedGustMPH,Humidity,HourlyPrecipIn,Conditions,Clouds,dailyrainin,SoftwareType,DateUTC
2013-06-16 00:01:00,47.0,29.0,-100.00,NNW,328,2.0,3.0,49,0.00,,,0.00,,2013-06-16 06:01:00,
2013-06-16 00:11:00,47.0,31.0,-100.00,NNW,342,2.0,3.0,53,0.00,,,0.00,,2013-06-16 06:11:00,
2013-06-16 00:22:00,47.0,31.0,-100.00,NNW,342,2.0,3.0,53,0.00,,,0.00,,2013-06-16 06:22:00,
2013-06-16 00:33:00,47.0,31.0,-100.00,NNW,342,2.0,3.0,53,0.00,,,0.00,,2013-06-16 06:33:00,
2013-06-16 00:43:00,47.0,30.0,-100.00,WNW,302,3.0,4.0,53,0.00,,,0.00,,2013-06-16 06:43:00,
2013-06-16 00:52:00,47.0,30.0,-100.00,WNW,302,3.0,4.0,53,0.00,,,0.00,,2013-06-16 06:52:00,
2013-06-16 01:01:00,47.0,33.0,-100.00,North,350,3.0,4.0,59,0.00,,,0.00,,2013-06-16 07:01:00,
2013-06-16 01:11:00,47.0,33.0,-100.00,NNW,343,3.0,5.0,57,0.00,,,0.00,,2013-06-16 07:11:00,
2013-06-16 01:22:00,47.0,33.0,-100.00,NNW,343,3.0,5.0,57,0.00,,,0.00,,2013-06-16 07:22:00,
2013-06-16 01:32:00,46.0,33.0,-100.00,North,4,3.0,4.0,60,0.00,,,0.00,,2013-06-16 07:32:00,
2013-06-16 01:43:00,46.0,31.0,-100.00,NNW,339,2.0,4.0,55,0.00,,,0.00,,2013-06-16 07:43:00,
2013-06-16 01:53:00,45.0,30.0,-100.00,WNW,298,3.0,4.0,55,0.00,,,0.00,,2013-06-16 07:53:00,
2013-06-16 02:02:00,45.0,30.0,-100.00,WNW,298,3.0,4.0,55,0.00,,,0.00,,2013-06-16 08:02:00,
2013-06-16 02:11:00,45.0,29.0,-100.00,NW,311,3.0,4.0,54,0.00,,,0.00,,2013-06-16 08:11:00,
2013-06-16 02:22:00,45.0,32.0,-100.00,WNW,302,2.0,2.0,60,0.00,,,0.00,,2013-06-16 08:22:00,
2013-06-16 02:33:00,45.0,32.0,-100.00,WNW,302,2.0,2.0,60,0.00,,,0.00,,2013-06-16 08:33:00,
2013-06-16 02:43:00,44.0,29.0,-100.00,NW,313,2.0,3.0,55,0.00,,,0.00,,2013-06-16 08:43:00,
2013-06-16 02:54:00,44.0,30.0,-100.00,NW,326,2.0,4.0,56,0.00,,,0.00,,2013-06-16 08:54:00,
2013-06-16 03:01:00,44.0,30.0,-100.00,NW,326,2.0,4.0,56,0.00,,,0.00,,2013-06-16 09:01:00,
2013-06-16 03:11:00,44.0,30.0,-100.00,NW,326,2.0,4.0,56,0.00,,,0.00,,2013-06-16 09:11:00,
2013-06-16 03:22:00,44.0,31.0,-100.00,NW,306,3.0,4.0,60,0.00,,,0.00,,2013-06-16 09:22:00,
2013-06-16 03:33:00,44.0,31.0,-100.00,NW,306,3.0,4.0,60,0.00,,,0.00,,2013-06-16 09:33:00,
2013-06-16 03:42:00,44.0,28.0,-100.00,NW,309,3.0,4.0,53,0.00,,,0.00,,2013-06-16 09:42:00,
2013-06-16 03:52:00,44.0,28.0,-100.00,NW,309,3.0,4.0,53,0.00,,,0.00,,2013-06-16 09:52:00,
2013-06-16 04:01:00,44.0,28.0,-100.00,NW,309,3.0,4.0,53,0.00,,,0.00,,2013-06-16 10:01:00,
2013-06-16 04:12:00,44.0,31.0,-100.00,NW,304,2.0,3.0,59,0.00,,,0.00,,2013-06-16 10:12:00,
2013-06-16 04:22:00,44.0,31.0,-100.00,NW,304,2.0,3.0,59,0.00,,,0.00,,2013-06-16 10:22:00,
2013-06-16 04:33:00,44.0,31.0,-100.00,NW,304,2.0,3.0,59,0.00,,,0.00,,2013-06-16 10:33:00,
2013-06-16 04:42:00,44.0,29.0,-100.00,NW,308,3.0,4.0,57,0.00,,,0.00,,2013-06-16 10:42:00,
2013-06-16 04:53:00,45.0,28.0,-100.00,NW,312,3.0,4.0,53,0.00,,,0.00,,2013-06-16 10:53:00,
2013-06-16 05:02:00,45.0,28.0,-100.00,NW,312,3.0,4.0,53,0.00,,,0.00,,2013-06-16 11:02:00,
2013-06-16 05:11:00,44.0,29.0,-100.00,NW,323,4.0,5.0,55,0.00,,,0.00,,2013-06-16 11:11:00,
2013-06-16 05:22:00,44.0,29.0,-100.00,NW,323,4.0,5.0,55,0.00,,,0.00,,2013-06-16 11:22:00,
2013-06-16 05:30:00,44.0,29.0,-100.00,NW,305,2.0,3.0,55,0.00,,,0.00,,2013-06-16 11:30:00,
2013-06-16 05:33:00,44.0,29.0,-100.00,NW,318,3.0,4.0,56,0.00,,,0.00,,2013-06-16 11:33:00,
2013-06-16 05:43:00,44.0,29.0,-100.00,NW,305,2.0,3.0,56,0.00,,,0.00,,2013-06-16 11:43:00,
2013-06-16 05:53:00,44.0,29.0,-100.00,NW,305,2.0,3.0,56,0.00,,,0.00,,2013-06-16 11:53:00,
2013-06-16 06:01:00,44.0,29.0,-100.00,NW,305,2.0,3.0,55,0.00,,,0.00,,2013-06-16 12:01:00,
2013-06-16 06:11:00,44.0,29.0,-100.00,NW,305,2.0,3.0,55,0.00,,,0.00,,2013-06-16 12:11:00,
2013-06-16 06:22:00,44.0,29.0,-100.00,NW,305,2.0,3.0,55,0.00,,,0.00,,2013-06-16 12:22:00,
2013-06-16 06:43:00,42.0,32.0,-100.00,WNW,291,1.0,2.0,66,0.00,,,0.00,,2013-06-16 12:43:00,
2013-06-16 06:53:00,42.0,32.0,-100.00,WNW,291,1.0,2.0,66,0.00,,,0.00,,2013-06-16 12:53:00,
2013-06-16 07:01:00,42.0,32.0,-100.00,WNW,291,1.0,2.0,66,0.00,,,0.00,,2013-06-16 13:01:00,
2013-06-16 07:11:00,44.0,34.0,-100.00,NW,312,1.0,2.0,67,0.00,,,0.00,,2013-06-16 13:11:00,
2013-06-16 07:22:00,44.0,34.0,-100.00,NW,312,1.0,2.0,67,0.00,,,0.00,,2013-06-16 13:22:00,
2013-06-16 07:34:00,46.0,31.0,-100.00,South,178,0.0,1.0,56,0.00,,,0.00,,2013-06-16 13:34:00,
2013-06-16 07:42:00,50.0,27.0,-100.00,ESE,114,4.0,6.0,40,0.00,,,0.00,,2013-06-16 13:42:00,
2013-06-16 07:53:00,50.0,27.0,-100.00,ESE,114,4.0,6.0,40,0.00,,,0.00,,2013-06-16 13:53:00,
2013-06-16 08:01:00,51.0,29.0,-100.00,ESE,116,3.0,4.0,43,0.00,,,0.00,,2013-06-16 14:01:00,
2013-06-16 08:12:00,52.0,29.0,-100.00,SE,131,5.0,8.0,39,0.00,,,0.00,,2013-06-16 14:12:00,
2013-06-16 08:22:00,52.0,29.0,-100.00,SE,131,5.0,8.0,39,0.00,,,0.00,,2013-06-16 14:22:00,
2013-06-16 08:34:00,53.0,28.0,-100.00,East,99,4.0,6.0,38,0.00,,,0.00,,2013-06-16 14:34:00,
2013-06-16 08:43:00,53.0,29.0,-100.00,ESE,119,4.0,6.0,40,0.00,,,0.00,,2013-06-16 14:43:00,
2013-06-16 08:52:00,53.0,29.0,-100.00,ESE,119,4.0,6.0,40,0.00,,,0.00,,2013-06-16 14:52:00,
2013-06-16 09:02:00,53.0,29.0,-100.00,ESE,119,4.0,6.0,40,0.00,,,0.00,,2013-06-16 15:02:00,
2013-06-16 09:33:00,57.0,30.0,-100.00,SE,140,5.0,6.0,35,0.00,,,0.00,,2013-06-16 15:33:00,
2013-06-16 09:43:00,58.0,29.0,-100.00,SE,143,4.0,7.0,33,0.00,,,0.00,,2013-06-16 15:43:00,
2013-06-16 09:52:00,59.0,30.0,-100.00,SE,138,5.0,7.0,33,0.00,,,0.00,,2013-06-16 15:52:00,
2013-06-16 10:01:00,59.0,30.0,-100.00,SE,138,5.0,7.0,33,0.00,,,0.00,,2013-06-16 16:01:00,
2013-06-16 10:11:00,59.0,30.0,-100.00,ESE,119,5.0,8.0,33,0.00,,,0.00,,2013-06-16 16:11:00,
2013-06-16 10:22:00,59.0,30.0,-100.00,ESE,119,5.0,8.0,33,0.00,,,0.00,,2013-06-16 16:22:00,
2013-06-16 10:33:00,59.0,30.0,-100.00,ESE,119,5.0,8.0,33,0.00,,,0.00,,2013-06-16 16:33:00,
2013-06-16 10:43:00,61.0,31.0,-100.00,ESE,120,5.0,7.0,32,0.00,,,0.00,,2013-06-16 16:43:00,
2013-06-16 10:53:00,61.0,31.0,-100.00,ESE,120,5.0,7.0,32,0.00,,,0.00,,2013-06-16 16:53:00,
2013-06-16 11:01:00,62.0,29.0,-100.00,ESE,117,6.0,9.0,29,0.00,,,0.00,,2013-06-16 17:01:00,
2013-06-16 11:11:00,63.0,28.0,-100.00,SE,124,6.0,7.0,27,0.00,,,0.00,,2013-06-16 17:11:00,
2013-06-16 11:22:00,63.0,28.0,-100.00,SE,124,6.0,7.0,27,0.00,,,0.00,,2013-06-16 17:22:00,
2013-06-16 11:34:00,63.0,30.0,-100.00,ESE,121,4.0,9.0,28,0.00,,,0.00,,2013-06-16 17:34:00,
2013-06-16 11:43:00,63.0,30.0,-100.00,ESE,121,4.0,9.0,28,0.00,,,0.00,,2013-06-16 17:43:00,
2013-06-16 11:53:00,63.0,30.0,-100.00,ESE,121,4.0,9.0,28,0.00,,,0.00,,2013-06-16 17:53:00,
2013-06-16 12:01:00,65.0,23.0,-100.00,NNW,333,7.0,9.0,20,0.00,,,0.00,,2013-06-16 18:01:00,
2013-06-16 12:12:00,65.0,23.0,-100.00,NNW,333,7.0,9.0,20,0.00,,,0.00,,2013-06-16 18:12:00,
2013-06-16 12:22:00,65.0,23.0,-100.00,NNW,333,7.0,9.0,20,0.00,,,0.00,,2013-06-16 18:22:00,
2013-06-16 12:33:00,66.0,26.0,-100.00,WNW,285,5.0,12.0,22,0.00,,,0.00,,2013-06-16 18:33:00,
2013-06-16 12:43:00,66.0,25.0,-100.00,NNW,328,9.0,15.0,21,0.00,,,0.00,,2013-06-16 18:43:00,
2013-06-16 12:52:00,65.0,26.0,-100.00,NNW,330,8.0,11.0,22,0.00,,,0.00,,2013-06-16 18:52:00,
2013-06-16 13:01:00,65.0,26.0,-100.00,NNW,330,8.0,11.0,22,0.00,,,0.00,,2013-06-16 19:01:00,
2013-06-16 13:11:00,66.0,27.0,-100.00,WNW,295,8.0,11.0,23,0.00,,,0.00,,2013-06-16 19:11:00,
2013-06-16 13:22:00,66.0,27.0,-100.00,WNW,295,8.0,11.0,23,0.00,,,0.00,,2013-06-16 19:22:00,
2013-06-16 13:33:00,67.0,27.0,-100.00,NW,318,6.0,13.0,23,0.00,,,0.00,,2013-06-16 19:33:00,
2013-06-16 13:43:00,68.0,30.0,-100.00,NW,313,8.0,11.0,24,0.00,,,0.00,,2013-06-16 19:43:00,
2013-06-16 13:53:00,66.0,28.0,-100.00,NW,312,10.0,13.0,24,0.00,,,0.00,,2013-06-16 19:53:00,
2013-06-16 14:01:00,66.0,28.0,-100.00,NW,312,10.0,13.0,24,0.00,,,0.00,,2013-06-16 20:01:00,
2013-06-16 14:11:00,66.0,28.0,-100.00,NW,312,10.0,13.0,24,0.00,,,0.00,,2013-06-16 20:11:00,
2013-06-16 14:22:00,66.0,28.0,-100.00,NW,312,10.0,13.0,24,0.00,,,0.00,,2013-06-16 20:22:00,
2013-06-16 14:33:00,68.0,28.0,-100.00,NW,318,9.0,13.0,22,0.00,,,0.00,,2013-06-16 20:33:00,
2013-06-16 14:43:00,68.0,29.0,-100.00,WNW,299,5.0,10.0,23,0.00,,,0.00,,2013-06-16 20:43:00,
2013-06-16 14:53:00,68.0,29.0,-100.00,WNW,299,5.0,10.0,23,0.00,,,0.00,,2013-06-16 20:53:00,
2013-06-16 15:01:00,67.0,29.0,-100.00,NW,309,9.0,18.0,24,0.00,,,0.00,,2013-06-16 21:01:00,
2013-06-16 15:11:00,67.0,29.0,-100.00,NW,309,9.0,18.0,24,0.00,,,0.00,,2013-06-16 21:11:00,
2013-06-16 15:21:00,67.0,29.0,-100.00,NW,309,9.0,18.0,24,0.00,,,0.00,,2013-06-16 21:21:00,
2013-06-16 15:32:00,67.0,28.0,-100.00,NNW,335,8.0,10.0,22,0.00,,,0.00,,2013-06-16 21:32:00,
2013-06-16 15:42:00,65.0,30.0,-100.00,NW,312,6.0,10.0,26,0.00,,,0.00,,2013-06-16 21:42:00,
2013-06-16 15:53:00,66.0,30.0,-100.00,NW,326,8.0,13.0,25,0.00,,,0.00,,2013-06-16 21:53:00,
2013-06-16 16:01:00,66.0,30.0,-100.00,NW,326,8.0,13.0,25,0.00,,,0.00,,2013-06-16 22:01:00,
2013-06-16 16:12:00,67.0,29.0,-100.00,NNW,330,10.0,13.0,24,0.00,,,0.00,,2013-06-16 22:12:00,
2013-06-16 16:22:00,67.0,29.0,-100.00,NNW,330,10.0,13.0,24,0.00,,,0.00,,2013-06-16 22:22:00,
2013-06-16 16:32:00,67.0,29.0,-100.00,NNW,330,10.0,13.0,24,0.00,,,0.00,,2013-06-16 22:32:00,
2013-06-16 16:41:00,68.0,29.0,-100.00,WNW,299,8.0,11.0,23,0.00,,,0.00,,2013-06-16 22:41:00,
2013-06-16 16:52:00,68.0,29.0,-100.00,WNW,299,8.0,11.0,23,0.00,,,0.00,,2013-06-16 22:52:00,
2013-06-16 17:01:00,68.0,29.0,-100.00,NW,309,7.0,12.0,24,0.00,,,0.00,,2013-06-16 23:01:00,
2013-06-16 17:11:00,67.0,29.0,-100.00,NNW,328,10.0,12.0,24,0.00,,,0.00,,2013-06-16 23:11:00,
2013-06-16 17:22:00,69.0,28.0,-100.00,NNW,329,11.0,14.0,21,0.00,,,0.00,,2013-06-16 23:22:00,
2013-06-16 17:32:00,69.0,28.0,-100.00,NNW,329,11.0,14.0,21,0.00,,,0.00,,2013-06-16 23:32:00,
2013-06-16 17:42:00,69.0,29.0,-100.00,WNW,289,7.0,11.0,22,0.00,,,0.00,,2013-06-16 23:42:00,
2013-06-16 17:52:00,69.0,29.0,-100.00,WNW,289,7.0,11.0,22,0.00,,,0.00,,2013-06-16 23:52:00,
2013-06-16 18:01:00,67.0,29.0,-100.00,WNW,288,8.0,12.0,24,0.00,,,0.00,,2013-06-17 00:01:00,
2013-06-16 18:11:00,67.0,29.0,-100.00,WNW,288,8.0,12.0,24,0.00,,,0.00,,2013-06-17 00:11:00,
2013-06-16 18:22:00,67.0,31.0,-100.00,WNW,288,6.0,14.0,25,0.00,,,0.00,,2013-06-17 00:22:00,
2013-06-16 18:32:00,67.0,31.0,-100.00,WNW,288,6.0,14.0,25,0.00,,,0.00,,2013-06-17 00:32:00,
2013-06-16 18:43:00,67.0,29.0,-100.00,East,86,5.0,8.0,23,0.00,,,0.00,,2013-06-17 00:43:00,
2013-06-16 18:52:00,67.0,29.0,-100.00,East,86,5.0,8.0,23,0.00,,,0.00,,2013-06-17 00:52:00,
2013-06-16 19:02:00,68.0,33.0,-100.00,West,281,2.0,3.0,28,0.00,,,0.00,,2013-06-17 01:02:00,
2013-06-16 19:11:00,68.0,29.0,-100.00,NW,326,3.0,4.0,24,0.00,,,0.00,,2013-06-17 01:11:00,
2013-06-16 19:22:00,68.0,29.0,-100.00,NW,326,3.0,4.0,24,0.00,,,0.00,,2013-06-17 01:22:00,
2013-06-16 19:32:00,68.0,28.0,-100.00,NNW,337,4.0,6.0,22,0.00,,,0.00,,2013-06-17 01:32:00,
2013-06-16 19:43:00,67.0,30.0,-100.00,SE,140,6.0,8.0,25,0.00,,,0.00,,2013-06-17 01:43:00,
2013-06-16 19:53:00,67.0,30.0,-100.00,SE,140,6.0,8.0,25,0.00,,,0.00,,2013-06-17 01:53:00,
2013-06-16 20:02:00,67.0,30.0,-100.00,SE,140,6.0,8.0,25,0.00,,,0.00,,2013-06-17 02:02:00,
2013-06-16 20:11:00,65.0,32.0,-100.00,North,1,1.0,2.0,29,0.00,,,0.00,,2013-06-17 02:11:00,
2013-06-16 20:22:00,65.0,32.0,-100.00,North,1,1.0,2.0,29,0.00,,,0.00,,2013-06-17 02:22:00,
2013-06-16 20:34:00,64.0,34.0,-100.00,WNW,288,1.0,2.0,32,0.00,,,0.00,,2013-06-17 02:34:00,
2013-06-16 20:43:00,63.0,34.0,-100.00,NW,326,2.0,3.0,34,0.00,,,0.00,,2013-06-17 02:43:00,
2013-06-16 20:53:00,63.0,34.0,-100.00,NW,326,2.0,3.0,34,0.00,,,0.00,,2013-06-17 02:53:00,
2013-06-16 21:02:00,63.0,34.0,-100.00,NW,326,2.0,3.0,34,0.00,,,0.00,,2013-06-17 03:02:00,
2013-06-16 21:12:00,63.0,34.0,-100.00,NW,326,2.0,3.0,34,0.00,,,0.00,,2013-06-17 03:12:00,
2013-06-16 21:44:00,60.0,37.0,-100.00,NW,315,6.0,9.0,44,0.00,,,0.00,,2013-06-17 03:44:00,
2013-06-16 21:54:00,60.0,37.0,-100.00,NW,315,6.0,9.0,44,0.00,,,0.00,,2013-06-17 03:54:00,
2013-06-16 22:02:00,60.0,37.0,-100.00,NW,315,6.0,9.0,44,0.00,,,0.00,,2013-06-17 04:02:00,
2013-06-16 22:12:00,56.0,37.0,-100.00,NW,322,3.0,4.0,48,0.00,,,0.00,,2013-06-17 04:12:00,
2013-06-16 22:22:00,56.0,37.0,-100.00,NW,322,3.0,4.0,48,0.00,,,0.00,,2013-06-17 04:22:00,
2013-06-16 22:33:00,55.0,37.0,-100.00,North,360,0.0,1.0,52,0.00,,,0.00,,2013-06-17 04:33:00,
2013-06-16 22:42:00,53.0,35.0,-100.00,NNE,14,1.0,3.0,50,0.00,,,0.00,,2013-06-17 04:42:00,
2013-06-16 22:53:00,53.0,35.0,-100.00,NNE,14,1.0,3.0,50,0.00,,,0.00,,2013-06-17 04:53:00,
2013-06-16 23:02:00,55.0,38.0,-100.00,WNW,296,1.0,2.0,53,0.00,,,0.00,,2013-06-17 05:02:00,
2013-06-16 23:11:00,53.0,38.0,-100.00,WNW,294,2.0,3.0,56,0.00,,,0.00,,2013-06-17 05:11:00,
2013-06-16 23:22:00,53.0,38.0,-100.00,WNW,294,2.0,3.0,56,0.00,,,0.00,,2013-06-17 05:22:00,
2013-06-16 23:33:00,53.0,38.0,-100.00,WNW,294,2.0,3.0,56,0.00,,,0.00,,2013-06-17 05:33:00,
2013-06-16 23:44:00,52.0,35.0,-100.00,NW,326,2.0,2.0,53,0.00,,,0.00,,2013-06-17 05:44:00,
2013-06-16 23:53:00,52.0,35.0,-100.00,NW,326,2.0,2.0,53,0.00,,,0.00,,2013-06-17 05:53:00,